sensor_id;sensor_type;location;lat;lon;timestamp;temperature;humidity
14097;DHT22;7125;48.106;11.544;2023-12-20T00:02:14;5.10;99.90
14097;DHT22;7125;48.106;11.544;2023-12-20T00:04:42;5.10;99.90
14097;DHT22;7125;48.106;11.544;2023-12-20T00:07:09;5.10;99.90
14097;DHT22;7125;48.106;11.544;2023-12-20T00:09:36;5.10;99.90
14097;DHT22;7125;48.106;11.544;2023-12-20T00:12:05;5.10;99.90
14097;DHT22;7125;48.106;11.544;2023-12-20T00:14:32;5.10;99.90
14097;DHT22;7125;48.106;11.544;2023-12-20T00:16:59;5.00;99.90
14097;DHT22;7125;48.106;11.544;2023-12-20T00:19:27;5.00;99.90
14097;DHT22;7125;48.106;11.544;2023-12-20T00:21:54;5.00;99.90
14097;DHT22;7125;48.106;11.544;2023-12-20T00:24:21;5.10;99.90
14097;DHT22;7125;48.106;11.544;2023-12-20T00:26:48;5.20;99.90
14097;DHT22;7125;48.106;11.544;2023-12-20T00:29:17;5.20;99.90
14097;DHT22;7125;48.106;11.544;2023-12-20T00:31:44;5.30;99.90
14097;DHT22;7125;48.106;11.544;2023-12-20T00:34:11;5.40;99.90
14097;DHT22;7125;48.106;11.544;2023-12-20T00:36:38;5.50;99.90
14097;DHT22;7125;48.106;11.544;2023-12-20T00:39:05;5.60;99.90
14097;DHT22;7125;48.106;11.544;2023-12-20T00:41:32;5.60;99.80
14097;DHT22;7125;48.106;11.544;2023-12-20T00:43:59;5.60;99.90
14097;DHT22;7125;48.106;11.544;2023-12-20T00:46:28;5.80;98.60
14097;DHT22;7125;48.106;11.544;2023-12-20T00:48:55;5.80;98.10
14097;DHT22;7125;48.106;11.544;2023-12-20T00:51:22;5.90;97.90
14097;DHT22;7125;48.106;11.544;2023-12-20T00:53:50;6.10;97.00
14097;DHT22;7125;48.106;11.544;2023-12-20T00:56:20;6.10;97.20
14097;DHT22;7125;48.106;11.544;2023-12-20T00:58:47;6.20;96.80
14097;DHT22;7125;48.106;11.544;2023-12-20T01:01:15;6.30;96.40
14097;DHT22;7125;48.106;11.544;2023-12-20T01:03:44;6.30;96.90
14097;DHT22;7125;48.106;11.544;2023-12-20T01:06:11;6.30;96.90
14097;DHT22;7125;48.106;11.544;2023-12-20T01:08:38;6.20;96.70
14097;DHT22;7125;48.106;11.544;2023-12-20T01:11:05;6.30;97.00
14097;DHT22;7125;48.106;11.544;2023-12-20T01:13:34;6.30;96.80
14097;DHT22;7125;48.106;11.544;2023-12-20T01:16:01;6.20;97.30
14097;DHT22;7125;48.106;11.544;2023-12-20T01:18:28;6.20;97.00
14097;DHT22;7125;48.106;11.544;2023-12-20T01:21:01;6.10;97.00
14097;DHT22;7125;48.106;11.544;2023-12-20T01:23:29;6.10;97.00
14097;DHT22;7125;48.106;11.544;2023-12-20T01:25:56;6.20;97.00
14097;DHT22;7125;48.106;11.544;2023-12-20T01:28:25;6.20;97.20
14097;DHT22;7125;48.106;11.544;2023-12-20T01:30:53;6.30;97.20
14097;DHT22;7125;48.106;11.544;2023-12-20T01:33:20;6.30;97.40
14097;DHT22;7125;48.106;11.544;2023-12-20T01:35:47;6.30;97.30
14097;DHT22;7125;48.106;11.544;2023-12-20T01:38:15;6.30;97.70
14097;DHT22;7125;48.106;11.544;2023-12-20T01:40:44;6.30;97.70
14097;DHT22;7125;48.106;11.544;2023-12-20T01:43:11;6.30;97.70
14097;DHT22;7125;48.106;11.544;2023-12-20T01:45:38;6.20;97.60
14097;DHT22;7125;48.106;11.544;2023-12-20T01:48:06;6.20;98.00
14097;DHT22;7125;48.106;11.544;2023-12-20T01:50:36;6.20;98.00
14097;DHT22;7125;48.106;11.544;2023-12-20T01:53:04;6.20;98.10
14097;DHT22;7125;48.106;11.544;2023-12-20T01:55:36;6.20;97.70
14097;DHT22;7125;48.106;11.544;2023-12-20T01:58:06;6.30;98.30
14097;DHT22;7125;48.106;11.544;2023-12-20T02:00:33;6.30;97.60
14097;DHT22;7125;48.106;11.544;2023-12-20T02:03:01;6.40;97.70
14097;DHT22;7125;48.106;11.544;2023-12-20T02:05:29;6.50;97.40
14097;DHT22;7125;48.106;11.544;2023-12-20T02:07:57;6.50;97.30
14097;DHT22;7125;48.106;11.544;2023-12-20T02:10:24;6.50;97.60
14097;DHT22;7125;48.106;11.544;2023-12-20T02:12:53;6.50;97.40
14097;DHT22;7125;48.106;11.544;2023-12-20T02:15:22;6.50;97.50
14097;DHT22;7125;48.106;11.544;2023-12-20T02:17:49;6.50;97.40
14097;DHT22;7125;48.106;11.544;2023-12-20T02:20:16;6.50;97.40
14097;DHT22;7125;48.106;11.544;2023-12-20T02:22:45;6.50;97.60
14097;DHT22;7125;48.106;11.544;2023-12-20T02:25:12;6.60;97.60
14097;DHT22;7125;48.106;11.544;2023-12-20T02:27:39;6.60;97.60
14097;DHT22;7125;48.106;11.544;2023-12-20T02:30:07;6.60;97.60
14097;DHT22;7125;48.106;11.544;2023-12-20T02:32:34;6.70;97.50
14097;DHT22;7125;48.106;11.544;2023-12-20T02:35:01;6.80;97.90
14097;DHT22;7125;48.106;11.544;2023-12-20T02:37:28;6.80;97.90
14097;DHT22;7125;48.106;11.544;2023-12-20T02:39:56;6.80;98.00
14097;DHT22;7125;48.106;11.544;2023-12-20T02:42:24;6.90;98.20
14097;DHT22;7125;48.106;11.544;2023-12-20T02:44:51;6.80;98.20
14097;DHT22;7125;48.106;11.544;2023-12-20T02:47:18;6.80;98.40
14097;DHT22;7125;48.106;11.544;2023-12-20T02:49:45;6.80;98.60
14097;DHT22;7125;48.106;11.544;2023-12-20T02:52:12;6.70;98.60
14097;DHT22;7125;48.106;11.544;2023-12-20T02:54:39;6.70;99.00
14097;DHT22;7125;48.106;11.544;2023-12-20T02:57:08;6.60;98.90
14097;DHT22;7125;48.106;11.544;2023-12-20T02:59:35;6.60;99.00
14097;DHT22;7125;48.106;11.544;2023-12-20T03:02:02;6.70;99.00
14097;DHT22;7125;48.106;11.544;2023-12-20T03:04:30;6.60;99.30
14097;DHT22;7125;48.106;11.544;2023-12-20T03:06:57;6.60;99.40
14097;DHT22;7125;48.106;11.544;2023-12-20T03:09:24;6.60;99.60
14097;DHT22;7125;48.106;11.544;2023-12-20T03:11:51;6.70;99.80
14097;DHT22;7125;48.106;11.544;2023-12-20T03:14:20;6.80;99.80
14097;DHT22;7125;48.106;11.544;2023-12-20T03:16:47;6.90;99.90
14097;DHT22;7125;48.106;11.544;2023-12-20T03:19:17;6.90;99.90
14097;DHT22;7125;48.106;11.544;2023-12-20T03:21:44;6.90;99.90
14097;DHT22;7125;48.106;11.544;2023-12-20T03:24:13;6.90;99.90
14097;DHT22;7125;48.106;11.544;2023-12-20T03:26:40;6.80;99.90
14097;DHT22;7125;48.106;11.544;2023-12-20T03:29:07;6.80;99.90
14097;DHT22;7125;48.106;11.544;2023-12-20T03:31:35;6.80;99.90
14097;DHT22;7125;48.106;11.544;2023-12-20T03:34:02;6.90;99.90
14097;DHT22;7125;48.106;11.544;2023-12-20T03:36:29;7.00;99.90
14097;DHT22;7125;48.106;11.544;2023-12-20T03:38:57;7.00;99.90
14097;DHT22;7125;48.106;11.544;2023-12-20T03:41:24;7.00;99.90
14097;DHT22;7125;48.106;11.544;2023-12-20T03:43:51;6.90;99.90
14097;DHT22;7125;48.106;11.544;2023-12-20T03:46:18;6.90;99.90
14097;DHT22;7125;48.106;11.544;2023-12-20T03:48:46;6.90;99.90
14097;DHT22;7125;48.106;11.544;2023-12-20T03:51:13;6.90;99.90
14097;DHT22;7125;48.106;11.544;2023-12-20T03:53:40;6.80;99.90
14097;DHT22;7125;48.106;11.544;2023-12-20T03:56:07;6.80;99.90
14097;DHT22;7125;48.106;11.544;2023-12-20T03:58:35;6.80;99.90
14097;DHT22;7125;48.106;11.544;2023-12-20T04:01:02;6.80;99.90
14097;DHT22;7125;48.106;11.544;2023-12-20T04:03:29;6.80;99.90
14097;DHT22;7125;48.106;11.544;2023-12-20T04:05:57;6.80;99.90
14097;DHT22;7125;48.106;11.544;2023-12-20T04:08:24;6.80;99.90
14097;DHT22;7125;48.106;11.544;2023-12-20T04:10:52;6.70;99.90
14097;DHT22;7125;48.106;11.544;2023-12-20T04:13:19;6.80;99.90
14097;DHT22;7125;48.106;11.544;2023-12-20T04:15:45;6.80;99.90
14097;DHT22;7125;48.106;11.544;2023-12-20T04:18:13;6.70;99.90
14097;DHT22;7125;48.106;11.544;2023-12-20T04:20:40;6.60;99.90
14097;DHT22;7125;48.106;11.544;2023-12-20T04:23:09;6.60;99.90
14097;DHT22;7125;48.106;11.544;2023-12-20T04:25:36;6.50;99.90
14097;DHT22;7125;48.106;11.544;2023-12-20T04:28:05;6.40;99.90
14097;DHT22;7125;48.106;11.544;2023-12-20T04:30:32;6.40;99.90
14097;DHT22;7125;48.106;11.544;2023-12-20T04:32:59;6.30;99.90
14097;DHT22;7125;48.106;11.544;2023-12-20T04:35:27;6.30;99.90
14097;DHT22;7125;48.106;11.544;2023-12-20T04:37:54;6.20;99.90
14097;DHT22;7125;48.106;11.544;2023-12-20T04:40:23;6.20;99.90
14097;DHT22;7125;48.106;11.544;2023-12-20T04:42:50;6.20;99.90
14097;DHT22;7125;48.106;11.544;2023-12-20T04:45:17;6.20;99.90
14097;DHT22;7125;48.106;11.544;2023-12-20T04:47:45;6.20;99.90
14097;DHT22;7125;48.106;11.544;2023-12-20T04:50:13;6.20;99.90
14097;DHT22;7125;48.106;11.544;2023-12-20T04:52:42;6.20;99.90
14097;DHT22;7125;48.106;11.544;2023-12-20T04:55:09;6.20;99.90
14097;DHT22;7125;48.106;11.544;2023-12-20T04:57:38;6.20;99.90
14097;DHT22;7125;48.106;11.544;2023-12-20T05:00:06;6.20;99.90
14097;DHT22;7125;48.106;11.544;2023-12-20T05:02:34;6.20;99.90
14097;DHT22;7125;48.106;11.544;2023-12-20T05:05:01;6.10;99.90
14097;DHT22;7125;48.106;11.544;2023-12-20T05:07:28;6.10;99.90
14097;DHT22;7125;48.106;11.544;2023-12-20T05:09:55;6.00;99.90
14097;DHT22;7125;48.106;11.544;2023-12-20T05:12:22;5.90;99.90
14097;DHT22;7125;48.106;11.544;2023-12-20T05:14:51;5.90;99.90
14097;DHT22;7125;48.106;11.544;2023-12-20T05:17:18;5.80;99.90
14097;DHT22;7125;48.106;11.544;2023-12-20T05:19:46;5.70;99.90
14097;DHT22;7125;48.106;11.544;2023-12-20T05:22:13;5.60;99.90
14097;DHT22;7125;48.106;11.544;2023-12-20T05:24:41;5.60;99.90
14097;DHT22;7125;48.106;11.544;2023-12-20T05:27:08;5.50;99.90
14097;DHT22;7125;48.106;11.544;2023-12-20T05:29:35;5.60;99.90
14097;DHT22;7125;48.106;11.544;2023-12-20T05:32:04;5.50;99.90
14097;DHT22;7125;48.106;11.544;2023-12-20T05:34:31;5.40;99.90
14097;DHT22;7125;48.106;11.544;2023-12-20T05:36:58;5.40;99.90
14097;DHT22;7125;48.106;11.544;2023-12-20T05:39:27;5.30;99.90
14097;DHT22;7125;48.106;11.544;2023-12-20T05:41:54;5.30;99.90
14097;DHT22;7125;48.106;11.544;2023-12-20T05:44:21;5.20;99.90
14097;DHT22;7125;48.106;11.544;2023-12-20T05:46:48;5.20;99.90
14097;DHT22;7125;48.106;11.544;2023-12-20T05:49:16;5.10;99.90
14097;DHT22;7125;48.106;11.544;2023-12-20T05:51:43;5.10;99.90
14097;DHT22;7125;48.106;11.544;2023-12-20T05:54:11;5.10;99.90
14097;DHT22;7125;48.106;11.544;2023-12-20T05:56:38;5.00;99.90
14097;DHT22;7125;48.106;11.544;2023-12-20T05:59:05;5.00;99.90
14097;DHT22;7125;48.106;11.544;2023-12-20T06:01:33;4.90;99.90
14097;DHT22;7125;48.106;11.544;2023-12-20T06:04:00;4.90;99.90
14097;DHT22;7125;48.106;11.544;2023-12-20T06:06:28;4.90;99.90
14097;DHT22;7125;48.106;11.544;2023-12-20T06:08:56;4.80;99.90
14097;DHT22;7125;48.106;11.544;2023-12-20T06:11:23;4.80;99.90
14097;DHT22;7125;48.106;11.544;2023-12-20T06:13:50;4.80;99.90
14097;DHT22;7125;48.106;11.544;2023-12-20T06:16:19;4.80;99.90
14097;DHT22;7125;48.106;11.544;2023-12-20T06:18:46;4.70;99.90
14097;DHT22;7125;48.106;11.544;2023-12-20T06:21:13;4.70;99.90
14097;DHT22;7125;48.106;11.544;2023-12-20T06:23:42;4.60;99.90
14097;DHT22;7125;48.106;11.544;2023-12-20T06:26:09;4.60;99.90
14097;DHT22;7125;48.106;11.544;2023-12-20T06:28:36;4.50;99.90
14097;DHT22;7125;48.106;11.544;2023-12-20T06:31:04;4.50;99.90
14097;DHT22;7125;48.106;11.544;2023-12-20T06:33:32;4.50;99.90
14097;DHT22;7125;48.106;11.544;2023-12-20T06:35:59;4.50;99.90
14097;DHT22;7125;48.106;11.544;2023-12-20T06:38:26;4.40;99.90
14097;DHT22;7125;48.106;11.544;2023-12-20T06:40:55;4.40;99.90
14097;DHT22;7125;48.106;11.544;2023-12-20T06:43:24;4.40;99.90
14097;DHT22;7125;48.106;11.544;2023-12-20T06:45:52;4.40;99.90
14097;DHT22;7125;48.106;11.544;2023-12-20T06:48:19;4.40;99.90
14097;DHT22;7125;48.106;11.544;2023-12-20T06:50:47;4.30;99.90
14097;DHT22;7125;48.106;11.544;2023-12-20T06:53:14;4.30;99.90
14097;DHT22;7125;48.106;11.544;2023-12-20T06:55:42;4.20;99.90
14097;DHT22;7125;48.106;11.544;2023-12-20T06:58:10;4.20;99.90
14097;DHT22;7125;48.106;11.544;2023-12-20T07:00:37;4.20;99.90
14097;DHT22;7125;48.106;11.544;2023-12-20T07:03:04;4.10;99.90
14097;DHT22;7125;48.106;11.544;2023-12-20T07:05:32;4.10;99.90
14097;DHT22;7125;48.106;11.544;2023-12-20T07:07:59;4.10;99.90
14097;DHT22;7125;48.106;11.544;2023-12-20T07:10:26;4.00;99.90
14097;DHT22;7125;48.106;11.544;2023-12-20T07:12:53;4.10;99.90
14097;DHT22;7125;48.106;11.544;2023-12-20T07:15:22;4.00;99.90
14097;DHT22;7125;48.106;11.544;2023-12-20T07:17:49;4.00;99.90
14097;DHT22;7125;48.106;11.544;2023-12-20T07:20:17;4.00;99.90
14097;DHT22;7125;48.106;11.544;2023-12-20T07:22:44;4.00;99.90
14097;DHT22;7125;48.106;11.544;2023-12-20T07:25:11;4.00;99.90
14097;DHT22;7125;48.106;11.544;2023-12-20T07:27:40;4.00;99.90
14097;DHT22;7125;48.106;11.544;2023-12-20T07:30:08;4.00;99.90
14097;DHT22;7125;48.106;11.544;2023-12-20T07:32:38;4.00;99.90
14097;DHT22;7125;48.106;11.544;2023-12-20T07:35:06;4.00;99.90
14097;DHT22;7125;48.106;11.544;2023-12-20T07:37:33;4.00;99.90
14097;DHT22;7125;48.106;11.544;2023-12-20T07:40:00;4.00;99.90
14097;DHT22;7125;48.106;11.544;2023-12-20T07:42:29;4.00;99.90
14097;DHT22;7125;48.106;11.544;2023-12-20T07:44:56;3.90;99.90
14097;DHT22;7125;48.106;11.544;2023-12-20T07:47:23;4.00;99.90
14097;DHT22;7125;48.106;11.544;2023-12-20T07:49:52;4.00;99.90
14097;DHT22;7125;48.106;11.544;2023-12-20T07:52:20;4.00;99.90
14097;DHT22;7125;48.106;11.544;2023-12-20T07:54:47;4.00;99.90
14097;DHT22;7125;48.106;11.544;2023-12-20T07:57:14;4.00;99.90
14097;DHT22;7125;48.106;11.544;2023-12-20T07:59:42;4.00;99.90
14097;DHT22;7125;48.106;11.544;2023-12-20T08:02:09;4.00;99.90
14097;DHT22;7125;48.106;11.544;2023-12-20T08:04:37;4.00;99.90
14097;DHT22;7125;48.106;11.544;2023-12-20T08:07:06;4.00;99.90
14097;DHT22;7125;48.106;11.544;2023-12-20T08:09:33;4.00;99.90
14097;DHT22;7125;48.106;11.544;2023-12-20T08:12:02;4.00;99.90
14097;DHT22;7125;48.106;11.544;2023-12-20T08:14:29;4.00;99.90
14097;DHT22;7125;48.106;11.544;2023-12-20T08:16:57;4.00;99.90
14097;DHT22;7125;48.106;11.544;2023-12-20T08:19:24;4.00;99.90
14097;DHT22;7125;48.106;11.544;2023-12-20T08:21:51;4.00;99.90
14097;DHT22;7125;48.106;11.544;2023-12-20T08:24:20;4.00;99.90
14097;DHT22;7125;48.106;11.544;2023-12-20T08:26:47;4.00;99.90
14097;DHT22;7125;48.106;11.544;2023-12-20T08:29:14;4.00;99.90
14097;DHT22;7125;48.106;11.544;2023-12-20T08:31:42;4.00;99.90
14097;DHT22;7125;48.106;11.544;2023-12-20T08:34:09;4.10;99.90
14097;DHT22;7125;48.106;11.544;2023-12-20T08:36:37;4.00;99.90
14097;DHT22;7125;48.106;11.544;2023-12-20T08:39:06;4.10;99.90
14097;DHT22;7125;48.106;11.544;2023-12-20T08:41:35;4.00;99.90
14097;DHT22;7125;48.106;11.544;2023-12-20T08:44:02;4.10;99.90
14097;DHT22;7125;48.106;11.544;2023-12-20T08:46:31;4.10;99.90
14097;DHT22;7125;48.106;11.544;2023-12-20T08:48:58;4.10;99.90
14097;DHT22;7125;48.106;11.544;2023-12-20T08:51:26;4.10;99.90
14097;DHT22;7125;48.106;11.544;2023-12-20T08:53:53;4.10;99.90
14097;DHT22;7125;48.106;11.544;2023-12-20T08:56:20;4.10;99.90
14097;DHT22;7125;48.106;11.544;2023-12-20T08:58:49;4.10;99.90
14097;DHT22;7125;48.106;11.544;2023-12-20T09:01:16;4.20;99.90
14097;DHT22;7125;48.106;11.544;2023-12-20T09:03:43;4.10;99.90
14097;DHT22;7125;48.106;11.544;2023-12-20T09:06:10;4.10;99.90
14097;DHT22;7125;48.106;11.544;2023-12-20T09:08:38;4.20;99.90
14097;DHT22;7125;48.106;11.544;2023-12-20T09:11:05;4.20;99.90
14097;DHT22;7125;48.106;11.544;2023-12-20T09:13:32;4.30;99.90
14097;DHT22;7125;48.106;11.544;2023-12-20T09:16:02;4.30;99.90
14097;DHT22;7125;48.106;11.544;2023-12-20T09:18:29;4.40;99.90
14097;DHT22;7125;48.106;11.544;2023-12-20T09:20:56;4.40;99.90
14097;DHT22;7125;48.106;11.544;2023-12-20T09:23:23;4.40;99.90
14097;DHT22;7125;48.106;11.544;2023-12-20T09:25:50;4.50;99.90
14097;DHT22;7125;48.106;11.544;2023-12-20T09:28:17;4.60;99.90
14097;DHT22;7125;48.106;11.544;2023-12-20T09:30:44;4.60;99.90
14097;DHT22;7125;48.106;11.544;2023-12-20T09:33:14;4.60;99.90
14097;DHT22;7125;48.106;11.544;2023-12-20T09:35:44;4.60;99.90
14097;DHT22;7125;48.106;11.544;2023-12-20T09:38:12;4.60;99.90
14097;DHT22;7125;48.106;11.544;2023-12-20T09:40:42;4.70;99.90
14097;DHT22;7125;48.106;11.544;2023-12-20T09:43:14;4.70;99.90
14097;DHT22;7125;48.106;11.544;2023-12-20T09:45:47;4.70;99.90
14097;DHT22;7125;48.106;11.544;2023-12-20T09:48:20;4.70;99.90
14097;DHT22;7125;48.106;11.544;2023-12-20T09:50:47;4.70;99.90
14097;DHT22;7125;48.106;11.544;2023-12-20T09:53:16;4.70;99.90
14097;DHT22;7125;48.106;11.544;2023-12-20T09:55:44;4.70;99.90
14097;DHT22;7125;48.106;11.544;2023-12-20T09:58:11;4.70;99.90
14097;DHT22;7125;48.106;11.544;2023-12-20T10:00:39;4.70;99.90
14097;DHT22;7125;48.106;11.544;2023-12-20T10:03:08;4.70;99.90
14097;DHT22;7125;48.106;11.544;2023-12-20T10:05:39;4.70;99.90
14097;DHT22;7125;48.106;11.544;2023-12-20T10:08:09;4.70;99.90
14097;DHT22;7125;48.106;11.544;2023-12-20T10:10:36;4.70;99.90
14097;DHT22;7125;48.106;11.544;2023-12-20T10:13:05;4.70;99.90
14097;DHT22;7125;48.106;11.544;2023-12-20T10:15:36;4.80;99.90
14097;DHT22;7125;48.106;11.544;2023-12-20T10:18:05;4.80;99.90
14097;DHT22;7125;48.106;11.544;2023-12-20T10:20:32;4.80;99.90
14097;DHT22;7125;48.106;11.544;2023-12-20T10:23:01;4.80;99.90
14097;DHT22;7125;48.106;11.544;2023-12-20T10:25:28;4.80;99.90
14097;DHT22;7125;48.106;11.544;2023-12-20T10:28:10;4.80;99.90
14097;DHT22;7125;48.106;11.544;2023-12-20T10:30:41;4.80;99.90
14097;DHT22;7125;48.106;11.544;2023-12-20T10:33:23;4.80;99.90
14097;DHT22;7125;48.106;11.544;2023-12-20T10:35:51;4.90;99.90
14097;DHT22;7125;48.106;11.544;2023-12-20T10:38:20;4.90;99.90
14097;DHT22;7125;48.106;11.544;2023-12-20T10:40:47;4.90;99.90
14097;DHT22;7125;48.106;11.544;2023-12-20T10:43:15;4.90;99.90
14097;DHT22;7125;48.106;11.544;2023-12-20T10:45:42;4.90;99.90
14097;DHT22;7125;48.106;11.544;2023-12-20T10:48:10;5.00;99.90
14097;DHT22;7125;48.106;11.544;2023-12-20T10:50:40;5.00;99.90
14097;DHT22;7125;48.106;11.544;2023-12-20T10:53:07;5.00;99.90
14097;DHT22;7125;48.106;11.544;2023-12-20T10:55:36;5.00;99.90
14097;DHT22;7125;48.106;11.544;2023-12-20T10:58:07;5.00;99.90
14097;DHT22;7125;48.106;11.544;2023-12-20T11:00:39;5.00;99.90
14097;DHT22;7125;48.106;11.544;2023-12-20T11:03:09;5.00;99.90
14097;DHT22;7125;48.106;11.544;2023-12-20T11:05:42;5.00;99.90
14097;DHT22;7125;48.106;11.544;2023-12-20T11:08:17;4.90;99.90
14097;DHT22;7125;48.106;11.544;2023-12-20T11:10:54;4.90;99.90
14097;DHT22;7125;48.106;11.544;2023-12-20T11:13:28;4.90;99.90
14097;DHT22;7125;48.106;11.544;2023-12-20T11:15:57;4.80;99.90
14097;DHT22;7125;48.106;11.544;2023-12-20T11:18:29;4.80;99.90
14097;DHT22;7125;48.106;11.544;2023-12-20T11:21:01;4.80;99.90
14097;DHT22;7125;48.106;11.544;2023-12-20T11:23:30;4.80;99.90
14097;DHT22;7125;48.106;11.544;2023-12-20T11:26:02;4.80;99.90
14097;DHT22;7125;48.106;11.544;2023-12-20T11:28:33;4.80;99.90
14097;DHT22;7125;48.106;11.544;2023-12-20T11:31:02;4.80;99.90
14097;DHT22;7125;48.106;11.544;2023-12-20T11:33:31;4.90;99.90
14097;DHT22;7125;48.106;11.544;2023-12-20T11:35:59;4.80;99.90
14097;DHT22;7125;48.106;11.544;2023-12-20T11:38:26;4.90;99.90
14097;DHT22;7125;48.106;11.544;2023-12-20T11:40:54;4.90;99.90
14097;DHT22;7125;48.106;11.544;2023-12-20T11:43:35;5.00;99.90
14097;DHT22;7125;48.106;11.544;2023-12-20T11:46:05;5.10;99.90
14097;DHT22;7125;48.106;11.544;2023-12-20T11:48:34;5.10;99.90
14097;DHT22;7125;48.106;11.544;2023-12-20T11:51:01;5.10;99.90
14097;DHT22;7125;48.106;11.544;2023-12-20T11:53:29;5.10;99.90
14097;DHT22;7125;48.106;11.544;2023-12-20T11:55:58;5.20;99.90
14097;DHT22;7125;48.106;11.544;2023-12-20T11:58:25;5.20;99.90
14097;DHT22;7125;48.106;11.544;2023-12-20T12:00:55;5.30;99.90
14097;DHT22;7125;48.106;11.544;2023-12-20T12:03:25;5.30;99.90
14097;DHT22;7125;48.106;11.544;2023-12-20T12:05:53;5.30;99.90
14097;DHT22;7125;48.106;11.544;2023-12-20T12:08:20;5.30;99.90
14097;DHT22;7125;48.106;11.544;2023-12-20T12:10:47;5.30;99.90
14097;DHT22;7125;48.106;11.544;2023-12-20T12:13:15;5.40;99.90
14097;DHT22;7125;48.106;11.544;2023-12-20T12:15:42;5.40;99.90
14097;DHT22;7125;48.106;11.544;2023-12-20T12:18:15;5.40;99.90
14097;DHT22;7125;48.106;11.544;2023-12-20T12:20:51;5.50;99.90
14097;DHT22;7125;48.106;11.544;2023-12-20T12:23:26;5.40;99.90
14097;DHT22;7125;48.106;11.544;2023-12-20T12:25:56;5.40;99.90
14097;DHT22;7125;48.106;11.544;2023-12-20T12:28:26;5.40;99.90
14097;DHT22;7125;48.106;11.544;2023-12-20T12:30:57;5.40;99.90
14097;DHT22;7125;48.106;11.544;2023-12-20T12:33:26;5.30;99.90
14097;DHT22;7125;48.106;11.544;2023-12-20T12:35:54;5.20;99.90
14097;DHT22;7125;48.106;11.544;2023-12-20T12:38:21;5.20;99.90
14097;DHT22;7125;48.106;11.544;2023-12-20T12:40:51;5.20;99.90
14097;DHT22;7125;48.106;11.544;2023-12-20T12:43:19;5.10;99.90
14097;DHT22;7125;48.106;11.544;2023-12-20T12:45:49;5.20;99.90
14097;DHT22;7125;48.106;11.544;2023-12-20T12:48:16;5.10;99.90
14097;DHT22;7125;48.106;11.544;2023-12-20T12:50:45;5.10;99.90
14097;DHT22;7125;48.106;11.544;2023-12-20T12:53:12;5.10;99.90
14097;DHT22;7125;48.106;11.544;2023-12-20T12:55:39;5.10;99.90
14097;DHT22;7125;48.106;11.544;2023-12-20T12:58:07;5.10;99.90
14097;DHT22;7125;48.106;11.544;2023-12-20T13:00:34;5.00;99.90
14097;DHT22;7125;48.106;11.544;2023-12-20T13:03:01;5.10;99.90
14097;DHT22;7125;48.106;11.544;2023-12-20T13:05:29;5.10;99.90
14097;DHT22;7125;48.106;11.544;2023-12-20T13:07:59;5.10;99.90
14097;DHT22;7125;48.106;11.544;2023-12-20T13:10:27;5.10;99.90
14097;DHT22;7125;48.106;11.544;2023-12-20T13:12:55;5.20;99.90
14097;DHT22;7125;48.106;11.544;2023-12-20T13:15:22;5.20;99.90
14097;DHT22;7125;48.106;11.544;2023-12-20T13:17:49;5.20;99.90
14097;DHT22;7125;48.106;11.544;2023-12-20T13:20:18;5.10;99.90
14097;DHT22;7125;48.106;11.544;2023-12-20T13:22:46;5.00;99.90
14097;DHT22;7125;48.106;11.544;2023-12-20T13:25:16;4.90;99.90
14097;DHT22;7125;48.106;11.544;2023-12-20T13:27:43;4.80;99.90
14097;DHT22;7125;48.106;11.544;2023-12-20T13:30:11;4.70;99.90
14097;DHT22;7125;48.106;11.544;2023-12-20T13:32:39;4.60;99.90
14097;DHT22;7125;48.106;11.544;2023-12-20T13:35:06;4.50;99.90
14097;DHT22;7125;48.106;11.544;2023-12-20T13:37:34;4.40;99.90
14097;DHT22;7125;48.106;11.544;2023-12-20T13:40:01;4.40;99.90
14097;DHT22;7125;48.106;11.544;2023-12-20T13:42:30;4.30;99.90
14097;DHT22;7125;48.106;11.544;2023-12-20T13:44:57;4.20;99.90
14097;DHT22;7125;48.106;11.544;2023-12-20T13:47:24;4.10;99.90
14097;DHT22;7125;48.106;11.544;2023-12-20T13:49:51;4.10;99.90
14097;DHT22;7125;48.106;11.544;2023-12-20T13:52:18;4.10;99.90
14097;DHT22;7125;48.106;11.544;2023-12-20T13:54:45;4.00;99.90
14097;DHT22;7125;48.106;11.544;2023-12-20T13:57:13;4.00;99.90
14097;DHT22;7125;48.106;11.544;2023-12-20T13:59:42;4.00;99.90
14097;DHT22;7125;48.106;11.544;2023-12-20T14:02:10;4.00;99.90
14097;DHT22;7125;48.106;11.544;2023-12-20T14:04:38;4.00;99.90
14097;DHT22;7125;48.106;11.544;2023-12-20T14:07:06;4.00;99.90
14097;DHT22;7125;48.106;11.544;2023-12-20T14:09:36;4.00;99.90
14097;DHT22;7125;48.106;11.544;2023-12-20T14:12:04;4.00;99.90
14097;DHT22;7125;48.106;11.544;2023-12-20T14:14:35;3.90;99.90
14097;DHT22;7125;48.106;11.544;2023-12-20T14:17:04;3.90;99.90
14097;DHT22;7125;48.106;11.544;2023-12-20T14:19:33;4.00;99.90
14097;DHT22;7125;48.106;11.544;2023-12-20T14:22:00;4.00;99.90
14097;DHT22;7125;48.106;11.544;2023-12-20T14:24:28;4.00;99.90
14097;DHT22;7125;48.106;11.544;2023-12-20T14:26:55;4.00;99.90
14097;DHT22;7125;48.106;11.544;2023-12-20T14:29:24;4.00;99.90
14097;DHT22;7125;48.106;11.544;2023-12-20T14:31:51;4.00;99.90
14097;DHT22;7125;48.106;11.544;2023-12-20T14:34:21;4.00;99.90
14097;DHT22;7125;48.106;11.544;2023-12-20T14:36:49;4.00;99.90
14097;DHT22;7125;48.106;11.544;2023-12-20T14:39:18;4.00;99.90
14097;DHT22;7125;48.106;11.544;2023-12-20T14:41:45;4.00;99.90
14097;DHT22;7125;48.106;11.544;2023-12-20T14:44:12;3.90;99.90
14097;DHT22;7125;48.106;11.544;2023-12-20T14:46:39;3.90;99.90
14097;DHT22;7125;48.106;11.544;2023-12-20T14:49:06;3.90;99.90
14097;DHT22;7125;48.106;11.544;2023-12-20T14:51:35;3.90;99.90
14097;DHT22;7125;48.106;11.544;2023-12-20T14:54:03;3.90;99.90
14097;DHT22;7125;48.106;11.544;2023-12-20T14:56:31;3.90;99.90
14097;DHT22;7125;48.106;11.544;2023-12-20T14:58:58;3.90;99.90
14097;DHT22;7125;48.106;11.544;2023-12-20T15:01:25;3.80;99.90
14097;DHT22;7125;48.106;11.544;2023-12-20T15:03:52;3.80;99.90
14097;DHT22;7125;48.106;11.544;2023-12-20T15:06:21;3.80;99.90
14097;DHT22;7125;48.106;11.544;2023-12-20T15:08:50;3.80;99.90
14097;DHT22;7125;48.106;11.544;2023-12-20T15:11:17;3.80;99.90
14097;DHT22;7125;48.106;11.544;2023-12-20T15:13:44;3.80;99.90
14097;DHT22;7125;48.106;11.544;2023-12-20T15:16:15;3.70;99.90
14097;DHT22;7125;48.106;11.544;2023-12-20T15:18:42;3.70;99.90
14097;DHT22;7125;48.106;11.544;2023-12-20T15:21:10;3.70;99.90
14097;DHT22;7125;48.106;11.544;2023-12-20T15:23:37;3.70;99.90
14097;DHT22;7125;48.106;11.544;2023-12-20T15:26:07;3.70;99.90
14097;DHT22;7125;48.106;11.544;2023-12-20T15:28:34;3.80;99.90
14097;DHT22;7125;48.106;11.544;2023-12-20T15:31:04;3.80;99.90
14097;DHT22;7125;48.106;11.544;2023-12-20T15:33:32;3.80;99.90
14097;DHT22;7125;48.106;11.544;2023-12-20T15:35:59;3.80;99.90
14097;DHT22;7125;48.106;11.544;2023-12-20T15:38:26;3.80;99.90
14097;DHT22;7125;48.106;11.544;2023-12-20T15:40:53;3.80;99.90
14097;DHT22;7125;48.106;11.544;2023-12-20T15:43:22;3.80;99.90
14097;DHT22;7125;48.106;11.544;2023-12-20T15:45:50;3.70;99.90
14097;DHT22;7125;48.106;11.544;2023-12-20T15:48:17;3.70;99.90
14097;DHT22;7125;48.106;11.544;2023-12-20T15:50:46;3.60;99.90